Time;durP1;ratioP1;P1;durP2;ratioP2;P2;SDS_P1;SDS_P2;PMS_P1;PMS_P2;Temp;Humidity;BMP_temperature;BMP_pressure;BME280_temperature;BME280_humidity;BME280_pressure;Samples;Min_cycle;Max_cycle;Signal;HPM_P1;HPM_P2
2022/01/10 00:00:04;;;;;;;;;;;;;;;;;;5156394;27;20107;-77
2022/01/10 00:02:30;;;;;;;42.67;12.88;;;;;;;;;;5155601;27;19920;-77
2022/01/10 00:04:56;;;;;;;48.85;11.23;;;;;;;;;;5136662;27;20402;-77
2022/01/10 00:07:22;;;;;;;40.65;10.02;;;;;;;;;;5156813;27;20146;-77
2022/01/10 00:09:48;;;;;;;37.95;10.82;;;;;;;;;;5136718;27;20133;-77
2022/01/10 00:12:14;;;;;;;31.40;8.95;;;;;;;;;;5137867;27;20099;-77
2022/01/10 00:14:40;;;;;;;40.70;10.27;;;;;;;;;;5155106;27;20050;-77
2022/01/10 00:17:06;;;;;;;37.15;9.55;;;;;;;;;;5156749;27;20049;-77
2022/01/10 00:19:32;;;;;;;35.58;9.35;;;;;;;;;;5154964;27;20039;-77
2022/01/10 00:21:58;;;;;;;33.67;8.70;;;;;;;;;;5153610;27;20043;-76
2022/01/10 00:24:24;;;;;;;37.13;9.23;;;;;;;;;;5156330;27;20046;-76
2022/01/10 00:26:51;;;;;;;35.25;9.23;;;;;;;;;;5155298;27;20050;-77
2022/01/10 00:29:17;;;;;;;33.83;9.35;;;;;;;;;;5156216;27;20046;-76
2022/01/10 00:31:43;;;;;;;35.42;9.50;;;;;;;;;;5136747;27;20050;-76
2022/01/10 00:34:10;;;;;;;38.40;9.43;;;;;;;;;;5155510;27;20081;-76
2022/01/10 00:36:36;;;;;;;33.78;9.57;;;;;;;;;;5154552;27;20058;-76
2022/01/10 00:39:03;;;;;;;31.65;8.55;;;;;;;;;;5156032;27;20038;-76
2022/01/10 00:41:29;;;;;;;33.35;9.18;;;;;;;;;;5154126;27;20053;-80
2022/01/10 00:43:56;;;;;;;29.40;9.25;;;;;;;;;;5136703;27;20122;-76
2022/01/10 00:46:22;;;;;;;40.22;8.98;;;;;;;;;;5137615;27;20051;-76
2022/01/10 00:48:48;;;;;;;31.40;8.60;;;;;;;;;;5136916;27;20542;-76
2022/01/10 00:51:14;;;;;;;;;;;;;;;;;;5155041;27;20490;-76
2022/01/10 00:53:43;;;;;;;31.98;8.70;;;;;;;;;;5154418;27;19930;-77
2022/01/10 00:56:09;;;;;;;41.13;9.27;;;;;;;;;;5137276;27;20114;-76
2022/01/10 00:58:36;;;;;;;33.20;9.02;;;;;;;;;;5136821;27;20047;-77
2022/01/10 01:01:03;;;;;;;36.50;9.80;;;;;;;;;;5154470;27;20074;-76
2022/01/10 01:03:30;;;;;;;38.17;9.80;;;;;;;;;;5155065;27;20088;-78
2022/01/10 01:05:56;;;;;;;32.75;10.77;;;;;;;;;;5154681;27;20130;-77
2022/01/10 01:08:22;;;;;;;28.35;9.38;;;;;;;;;;5155600;27;20419;-77
2022/01/10 01:13:32;;;;;;;38.45;9.50;;;;;;;;;;5155650;27;20057;-76
2022/01/10 01:24:06;;;;;;;32.63;8.75;;;;;;;;;;5153914;27;20082;-77
2022/01/10 01:26:34;;;;;;;35.85;9.10;;;;;;;;;;5152511;27;20057;-76
2022/01/10 01:29:00;;;;;;;33.75;9.00;;;;;;;;;;5134474;27;20049;-76
2022/01/10 01:31:26;;;;;;;37.13;9.82;;;;;;;;;;5155016;27;20153;-76
2022/01/10 01:33:53;;;;;;;30.40;9.05;;;;;;;;;;5135917;27;20049;-77
2022/01/10 01:36:24;;;;;;;34.58;9.40;;;;;;;;;;5153829;27;20034;-76
2022/01/10 01:38:51;;;;;;;27.20;8.93;;;;;;;;;;5154534;27;20062;-76
2022/01/10 01:43:45;;;;;;;33.63;9.32;;;;;;;;;;5154089;27;20134;-76
2022/01/10 01:46:11;;;;;;;31.60;10.05;;;;;;;;;;5152449;27;20049;-77
2022/01/10 01:48:37;;;;;;;29.88;9.52;;;;;;;;;;5154348;27;20053;-80
2022/01/10 01:51:04;;;;;;;32.58;10.20;;;;;;;;;;5135311;27;20039;-76
2022/01/10 01:53:33;;;;;;;27.20;9.63;;;;;;;;;;5132315;27;20047;-76
2022/01/10 01:56:00;;;;;;;35.40;9.35;;;;;;;;;;5142470;27;20554;-77
2022/01/10 01:58:27;;;;;;;36.40;10.20;;;;;;;;;;5131857;27;20168;-76
2022/01/10 02:00:53;;;;;;;33.20;9.93;;;;;;;;;;5148061;27;20174;-76
2022/01/10 02:03:19;;;;;;;38.20;11.20;;;;;;;;;;5152369;27;20091;-76
2022/01/10 02:05:45;;;;;;;31.27;9.55;;;;;;;;;;5157297;27;20142;-76
2022/01/10 02:08:11;;;;;;;25.67;9.30;;;;;;;;;;5160283;27;20047;-76
2022/01/10 02:10:38;;;;;;;32.22;10.57;;;;;;;;;;5118238;27;20115;-76
2022/01/10 02:13:04;;;;;;;32.15;10.80;;;;;;;;;;5153147;27;20482;-77
2022/01/10 02:15:35;;;;;;;38.97;10.57;;;;;;;;;;5134829;27;20039;-76
2022/01/10 02:18:01;;;;;;;35.65;10.90;;;;;;;;;;5152636;27;20850;-76
2022/01/10 02:20:33;;;;;;;38.33;10.25;;;;;;;;;;5154077;27;20047;-76
2022/01/10 02:23:00;;;;;;;34.42;11.50;;;;;;;;;;5117401;27;20439;-76
2022/01/10 02:25:26;;;;;;;28.77;9.82;;;;;;;;;;5153486;27;20054;-76
2022/01/10 02:27:52;;;;;;;32.10;10.77;;;;;;;;;;5137471;27;20131;-76
2022/01/10 02:30:18;;;;;;;;;;;;;;;;;;5133600;27;20154;-77
2022/01/10 02:32:45;;;;;;;36.20;11.10;;;;;;;;;;5127660;27;19919;-80
2022/01/10 02:35:11;;;;;;;;;;;;;;;;;;5153587;27;20050;-76
2022/01/10 02:37:37;;;;;;;38.22;12.35;;;;;;;;;;5145010;27;19923;-76
2022/01/10 02:40:06;;;;;;;37.55;10.90;;;;;;;;;;5146667;27;20584;-76
2022/01/10 02:42:33;;;;;;;37.17;10.93;;;;;;;;;;5152877;27;20042;-76
2022/01/10 02:44:59;;;;;;;39.67;11.65;;;;;;;;;;5152934;27;20053;-76
2022/01/10 02:47:27;;;;;;;35.63;11.32;;;;;;;;;;5152562;27;20046;-76
2022/01/10 02:49:54;;;;;;;32.08;11.73;;;;;;;;;;5134053;27;20148;-77
2022/01/10 02:52:20;;;;;;;32.92;12.43;;;;;;;;;;5133612;27;20483;-77
2022/01/10 02:54:46;;;;;;;36.72;11.30;;;;;;;;;;5153215;27;20038;-79
2022/01/10 02:57:12;;;;;;;36.80;11.05;;;;;;;;;;5152844;27;20054;-77
2022/01/10 02:59:39;;;;;;;35.70;11.98;;;;;;;;;;5152815;27;20046;-76
2022/01/10 03:02:08;;;;;;;27.58;11.07;;;;;;;;;;5151472;27;20050;-77
2022/01/10 03:04:34;;;;;;;35.53;11.13;;;;;;;;;;5132403;28;20055;-76
2022/01/10 03:07:00;;;;;;;40.22;12.05;;;;;;;;;;5131939;28;20046;-77
2022/01/10 03:09:26;;;;;;;42.92;11.77;;;;;;;;;;5132602;28;20504;-77
2022/01/10 03:11:52;;;;;;;31.65;11.77;;;;;;;;;;5133543;27;20417;-77
2022/01/10 03:14:18;;;;;;;34.08;11.55;;;;;;;;;;5152331;27;20038;-76
2022/01/10 03:16:45;;;;;;;36.58;12.38;;;;;;;;;;5153146;27;20043;-77
2022/01/10 03:19:11;;;;;;;34.30;11.93;;;;;;;;;;5117220;27;20078;-76
2022/01/10 03:21:37;;;;;;;35.97;11.65;;;;;;;;;;5153009;27;20051;-77
2022/01/10 03:24:03;;;;;;;30.38;12.05;;;;;;;;;;5148726;27;20078;-77
2022/01/10 03:26:29;;;;;;;38.95;12.05;;;;;;;;;;5116128;27;20059;-77
2022/01/10 03:28:55;;;;;;;41.10;12.52;;;;;;;;;;5152606;27;20047;-78
2022/01/10 03:31:22;;;;;;;41.85;13.55;;;;;;;;;;5134792;27;20046;-77
2022/01/10 03:33:48;;;;;;;42.20;13.20;;;;;;;;;;5152678;27;20038;-77
2022/01/10 03:36:14;;;;;;;36.97;13.20;;;;;;;;;;5152070;27;20046;-76
2022/01/10 03:38:41;;;;;;;32.63;12.38;;;;;;;;;;5134322;27;20405;-77
2022/01/10 03:41:09;;;;;;;28.85;12.00;;;;;;;;;;5151152;27;20121;-77
2022/01/10 03:43:35;;;;;;;40.00;13.25;;;;;;;;;;5153307;27;20095;-76
2022/01/10 03:46:01;;;;;;;42.05;12.88;;;;;;;;;;5152006;27;20423;-77
2022/01/10 03:48:27;;;;;;;38.45;13.75;;;;;;;;;;5149463;27;20039;-76
2022/01/10 03:50:53;;;;;;;37.47;13.02;;;;;;;;;;5118631;28;20092;-76
2022/01/10 03:53:19;;;;;;;38.65;13.48;;;;;;;;;;5131504;28;20439;-77
2022/01/10 03:55:45;;;;;;;43.67;14.02;;;;;;;;;;5148071;27;20053;-76
2022/01/10 03:58:11;;;;;;;35.13;12.10;;;;;;;;;;5115838;27;20047;-76
2022/01/10 04:00:37;;;;;;;42.88;14.45;;;;;;;;;;5130065;27;20095;-76
2022/01/10 04:03:06;;;;;;;39.08;13.43;;;;;;;;;;5151372;27;20078;-76
2022/01/10 04:05:32;;;;;;;34.40;13.38;;;;;;;;;;5151902;27;20126;-76
2022/01/10 04:07:58;;;;;;;39.53;13.18;;;;;;;;;;5152173;27;20049;-80
2022/01/10 04:10:25;;;;;;;31.63;12.95;;;;;;;;;;5135966;27;20047;-76
2022/01/10 04:12:51;;;;;;;31.67;13.13;;;;;;;;;;5156182;27;20070;-77
2022/01/10 04:15:17;;;;;;;34.15;12.95;;;;;;;;;;5155092;27;20394;-76
2022/01/10 04:17:43;;;;;;;32.47;12.90;;;;;;;;;;5156452;27;20047;-77
2022/01/10 04:20:09;;;;;;;40.20;14.05;;;;;;;;;;5155618;27;20047;-76
2022/01/10 04:22:35;;;;;;;39.58;14.75;;;;;;;;;;5155895;27;20038;-77
2022/01/10 04:25:01;;;;;;;41.97;14.80;;;;;;;;;;5154740;27;20073;-80
2022/01/10 04:27:32;;;;;;;41.17;16.17;;;;;;;;;;5154441;27;20113;-76
2022/01/10 04:29:58;;;;;;;51.60;17.50;;;;;;;;;;5155465;27;20533;-76
2022/01/10 04:32:27;;;;;;;36.83;15.23;;;;;;;;;;5154917;27;20154;-76
2022/01/10 04:34:53;;;;;;;33.03;14.73;;;;;;;;;;5137139;27;20494;-76
2022/01/10 04:37:19;;;;;;;34.72;13.90;;;;;;;;;;5119720;27;20042;-77
2022/01/10 04:39:45;;;;;;;44.08;15.27;;;;;;;;;;5137670;27;20562;-76
2022/01/10 04:42:11;;;;;;;41.60;14.95;;;;;;;;;;5134722;27;20391;-76
2022/01/10 04:44:37;;;;;;;43.47;15.27;;;;;;;;;;5155656;27;20133;-77
2022/01/10 04:47:03;;;;;;;37.30;15.80;;;;;;;;;;5155030;27;20043;-80
2022/01/10 04:49:37;;;;;;;41.70;14.85;;;;;;;;;;5116198;27;20047;-76
2022/01/10 04:52:04;;;;;;;51.30;16.27;;;;;;;;;;5133373;27;20053;-80
2022/01/10 04:54:30;;;;;;;45.67;16.02;;;;;;;;;;5120375;27;20505;-76
2022/01/10 04:56:56;;;;;;;39.65;16.40;;;;;;;;;;5136727;27;20096;-76
2022/01/10 04:59:22;;;;;;;39.42;15.05;;;;;;;;;;5154916;27;20402;-76
2022/01/10 05:01:48;;;;;;;46.75;16.88;;;;;;;;;;5135752;27;20058;-76
2022/01/10 05:04:14;;;;;;;38.67;16.25;;;;;;;;;;5153851;27;20459;-76
2022/01/10 05:06:42;;;;;;;39.13;15.98;;;;;;;;;;5154545;27;20155;-76
2022/01/10 05:09:08;;;;;;;43.83;18.02;;;;;;;;;;5136250;27;20091;-80
2022/01/10 05:11:38;;;;;;;50.22;18.42;;;;;;;;;;5154123;27;20414;-76
2022/01/10 05:14:04;;;;;;;39.45;16.83;;;;;;;;;;5154946;27;20099;-76
2022/01/10 05:16:30;;;;;;;41.42;19.45;;;;;;;;;;5154685;27;20042;-76
2022/01/10 05:18:56;;;;;;;42.40;17.67;;;;;;;;;;5136328;27;20379;-77
2022/01/10 05:21:22;;;;;;;44.30;18.85;;;;;;;;;;5135983;27;20050;-76
2022/01/10 05:23:48;;;;;;;51.38;18.48;;;;;;;;;;5154310;27;20082;-77
2022/01/10 05:26:14;;;;;;;46.17;19.65;;;;;;;;;;5118379;27;20042;-77
2022/01/10 05:28:40;;;;;;;47.85;20.05;;;;;;;;;;5143559;27;20126;-76
2022/01/10 05:31:06;;;;;;;42.28;19.08;;;;;;;;;;5148941;27;20513;-76
2022/01/10 05:33:33;;;;;;;53.53;20.08;;;;;;;;;;5153239;27;20128;-77
2022/01/10 05:35:59;;;;;;;46.50;21.25;;;;;;;;;;5154297;27;20130;-77
2022/01/10 05:38:25;;;;;;;51.63;20.33;;;;;;;;;;5135635;27;20117;-77
2022/01/10 05:40:51;;;;;;;42.90;19.90;;;;;;;;;;5153483;27;20081;-77
2022/01/10 05:43:17;;;;;;;55.95;23.52;;;;;;;;;;5154046;27;20138;-77
2022/01/10 05:45:44;;;;;;;50.55;22.80;;;;;;;;;;5154405;27;20085;-76
2022/01/10 05:48:14;;;;;;;45.55;20.27;;;;;;;;;;5154683;27;20189;-77
2022/01/10 05:50:42;;;;;;;44.43;20.50;;;;;;;;;;5153810;27;20074;-77
2022/01/10 05:53:09;;;;;;;46.13;20.95;;;;;;;;;;5154253;27;20070;-76
2022/01/10 05:55:36;;;;;;;45.40;22.83;;;;;;;;;;5154033;27;20039;-77
2022/01/10 05:58:03;;;;;;;44.97;20.97;;;;;;;;;;5135828;27;20055;-77
2022/01/10 06:00:30;;;;;;;49.77;23.37;;;;;;;;;;5153371;27;20043;-77
2022/01/10 06:02:56;;;;;;;49.95;22.55;;;;;;;;;;5137755;27;20118;-76
2022/01/10 06:05:24;;;;;;;58.97;25.63;;;;;;;;;;5143434;27;20051;-76
2022/01/10 06:07:50;;;;;;;47.93;22.93;;;;;;;;;;5158826;27;20053;-76
2022/01/10 06:10:16;;;;;;;53.30;23.60;;;;;;;;;;5135659;27;20046;-80
2022/01/10 06:12:42;;;;;;;48.95;23.83;;;;;;;;;;5154244;27;20042;-77
2022/01/10 06:15:08;;;;;;;58.13;26.05;;;;;;;;;;5153477;27;20050;-77
2022/01/10 06:17:34;;;;;;;51.83;23.88;;;;;;;;;;5135037;27;20042;-77
2022/01/10 06:20:00;;;;;;;58.15;27.33;;;;;;;;;;5153014;27;20043;-77
2022/01/10 06:22:27;;;;;;;51.90;25.45;;;;;;;;;;5154169;27;20038;-77
2022/01/10 06:24:53;;;;;;;;;;;;;;;;;;5135889;27;20050;-77
2022/01/10 06:27:19;;;;;;;57.43;27.43;;;;;;;;;;5153826;27;20014;-80
2022/01/10 06:29:45;;;;;;;64.65;29.55;;;;;;;;;;5130208;27;20039;-77
2022/01/10 06:32:18;;;;;;;58.80;28.60;;;;;;;;;;5113596;27;20096;-77
2022/01/10 06:34:44;;;;;;;68.10;31.07;;;;;;;;;;5151542;27;20136;-77
2022/01/10 06:37:10;;;;;;;68.80;30.85;;;;;;;;;;5153035;27;20034;-77
2022/01/10 06:39:36;;;;;;;64.63;32.25;;;;;;;;;;5144740;27;20122;-78
2022/01/10 06:42:03;;;;;;;57.42;30.27;;;;;;;;;;5144553;27;20363;-78
2022/01/10 06:44:29;;;;;;;65.47;29.83;;;;;;;;;;5128393;27;20462;-78
2022/01/10 06:46:55;;;;;;;57.63;29.27;;;;;;;;;;5152251;27;20403;-78
2022/01/10 06:49:21;;;;;;;60.75;30.55;;;;;;;;;;5124187;27;20054;-77
2022/01/10 06:51:47;;;;;;;62.33;30.27;;;;;;;;;;5143088;27;20035;-77
2022/01/10 06:54:13;;;;;;;61.15;31.10;;;;;;;;;;5153351;27;20130;-77
2022/01/10 06:56:39;;;;;;;74.22;34.65;;;;;;;;;;5151465;27;20447;-78
2022/01/10 06:59:05;;;;;;;78.63;34.92;;;;;;;;;;5130215;27;20427;-78
2022/01/10 07:01:31;;;;;;;66.55;32.67;;;;;;;;;;5151087;27;20074;-78
2022/01/10 07:03:58;;;;;;;62.90;33.53;;;;;;;;;;5152221;27;20062;-78
2022/01/10 07:06:24;;;;;;;65.83;31.37;;;;;;;;;;5140469;27;20055;-82
2022/01/10 07:08:52;;;;;;;65.43;30.83;;;;;;;;;;5139672;27;20047;-80
2022/01/10 07:11:18;;;;;;;62.17;33.47;;;;;;;;;;5137579;27;20053;-79
2022/01/10 07:13:45;;;;;;;69.38;34.17;;;;;;;;;;5124269;27;20039;-80
2022/01/10 07:16:12;;;;;;;79.05;34.35;;;;;;;;;;5137109;27;20094;-79
2022/01/10 07:18:38;;;;;;;66.27;33.07;;;;;;;;;;5108414;27;20047;-78
2022/01/10 07:21:04;;;;;;;67.57;33.97;;;;;;;;;;5148765;27;20125;-78
2022/01/10 07:23:30;;;;;;;76.70;34.53;;;;;;;;;;5111340;27;20039;-80
2022/01/10 07:25:56;;;;;;;62.13;33.58;;;;;;;;;;5148490;27;20531;-79
2022/01/10 07:28:22;;;;;;;67.05;33.55;;;;;;;;;;5124810;28;20055;-79
2022/01/10 07:30:49;;;;;;;67.28;31.65;;;;;;;;;;5144172;27;20038;-80
2022/01/10 07:33:15;;;;;;;83.70;38.87;;;;;;;;;;5127512;27;20447;-79
2022/01/10 07:35:41;;;;;;;;;;;;;;;;;;5132321;27;20442;-82
2022/01/10 07:38:07;;;;;;;83.77;39.23;;;;;;;;;;5149330;27;19919;-80
2022/01/10 07:40:33;;;;;;;83.03;38.03;;;;;;;;;;5144863;27;20068;-79
2022/01/10 07:43:00;;;;;;;90.70;41.90;;;;;;;;;;5146511;27;20612;-79
2022/01/10 07:45:26;;;;;;;84.38;38.10;;;;;;;;;;5154809;27;20039;-79
2022/01/10 07:47:52;;;;;;;78.50;37.45;;;;;;;;;;5153556;27;20827;-81
2022/01/10 07:50:18;;;;;;;91.35;40.25;;;;;;;;;;5130372;27;20417;-80
2022/01/10 07:52:44;;;;;;;76.53;40.05;;;;;;;;;;5131095;27;20047;-79
2022/01/10 07:55:10;;;;;;;85.72;39.72;;;;;;;;;;5149806;27;20124;-80
2022/01/10 07:57:37;;;;;;;77.22;36.25;;;;;;;;;;5113120;27;20108;-80
2022/01/10 08:00:04;;;;;;;72.45;39.50;;;;;;;;;;5152448;27;20386;-78
2022/01/10 08:02:30;;;;;;;77.73;40.00;;;;;;;;;;5146903;27;20104;-79
2022/01/10 08:04:56;;;;;;;80.10;39.45;;;;;;;;;;5168452;27;20047;-79
2022/01/10 08:07:22;;;;;;;78.20;40.25;;;;;;;;;;5162794;27;20061;-78
2022/01/10 08:09:48;;;;;;;88.60;43.72;;;;;;;;;;5151635;27;20100;-79
2022/01/10 08:12:15;;;;;;;81.25;39.92;;;;;;;;;;5152346;27;20038;-79
2022/01/10 08:14:41;;;;;;;78.95;39.25;;;;;;;;;;5108174;27;20520;-80
2022/01/10 08:17:07;;;;;;;84.38;40.83;;;;;;;;;;5150571;27;20495;-81
2022/01/10 08:19:34;;;;;;;92.07;42.63;;;;;;;;;;5132714;27;20031;-79
2022/01/10 08:22:03;;;;;;;78.87;41.13;;;;;;;;;;5134530;27;20054;-79
2022/01/10 08:24:29;;;;;;;87.33;41.10;;;;;;;;;;5149660;27;20084;-79
2022/01/10 08:26:56;;;;;;;77.15;40.17;;;;;;;;;;5151963;27;20046;-77
2022/01/10 08:29:22;;;;;;;93.30;46.25;;;;;;;;;;5125640;27;20050;-79
2022/01/10 08:31:49;;;;;;;89.30;44.60;;;;;;;;;;5147041;27;20046;-80
2022/01/10 08:34:15;;;;;;;83.00;44.00;;;;;;;;;;5135519;27;20047;-79
2022/01/10 08:36:41;;;;;;;87.18;44.60;;;;;;;;;;5134697;27;20055;-80
2022/01/10 08:39:09;;;;;;;90.53;44.30;;;;;;;;;;5125421;27;20043;-79
2022/01/10 08:41:35;;;;;;;90.70;44.40;;;;;;;;;;5132811;27;20051;-79
2022/01/10 08:44:03;;;;;;;85.47;45.23;;;;;;;;;;5118794;27;20608;-79
2022/01/10 08:46:29;;;;;;;96.20;43.33;;;;;;;;;;5144493;27;20062;-79
2022/01/10 08:48:55;;;;;;;95.53;48.47;;;;;;;;;;5149393;27;20035;-79
2022/01/10 08:51:21;;;;;;;91.10;43.38;;;;;;;;;;5147392;27;20050;-84
2022/01/10 08:53:47;;;;;;;101.70;46.72;;;;;;;;;;5131182;27;20046;-80
2022/01/10 08:56:13;;;;;;;125.00;50.45;;;;;;;;;;5127592;27;20050;-79
2022/01/10 08:58:39;;;;;;;91.55;47.97;;;;;;;;;;5086036;28;20036;-84
2022/01/10 09:01:06;;;;;;;88.28;48.00;;;;;;;;;;5088544;28;20043;-79
2022/01/10 09:03:32;;;;;;;93.03;49.20;;;;;;;;;;5078743;28;20399;-79
2022/01/10 09:05:59;;;;;;;88.68;44.60;;;;;;;;;;5096206;28;20048;-80
2022/01/10 09:08:31;;;;;;;97.27;49.87;;;;;;;;;;5103422;28;20096;-80
2022/01/10 09:10:57;;;;;;;100.70;50.73;;;;;;;;;;5079019;28;20052;-80
2022/01/10 09:13:23;;;;;;;94.95;47.40;;;;;;;;;;5103368;28;20069;-79
2022/01/10 09:15:49;;;;;;;106.30;52.20;;;;;;;;;;5093755;28;20044;-80
2022/01/10 09:18:16;;;;;;;105.45;49.33;;;;;;;;;;5079446;28;20437;-80
2022/01/10 09:20:43;;;;;;;90.60;47.43;;;;;;;;;;5106798;28;20345;-85
2022/01/10 09:23:09;;;;;;;95.03;51.43;;;;;;;;;;5090639;28;20036;-80
2022/01/10 09:25:35;;;;;;;98.85;49.42;;;;;;;;;;5108358;28;20513;-82
2022/01/10 09:28:01;;;;;;;94.55;48.55;;;;;;;;;;5089540;28;20439;-82
2022/01/10 09:30:28;;;;;;;101.30;52.70;;;;;;;;;;5101023;28;20087;-81
2022/01/10 09:32:54;;;;;;;;;;;;;;;;;;5117832;27;20040;-80
2022/01/10 09:35:21;;;;;;;88.10;46.67;;;;;;;;;;5104417;28;19928;-81
2022/01/10 09:37:47;;;;;;;;;;;;;;;;;;5108457;28;20098;-86
2022/01/10 09:40:13;;;;;;;99.27;52.27;;;;;;;;;;5107001;28;20398;-83
2022/01/10 09:42:39;;;;;;;110.63;49.80;;;;;;;;;;5078735;28;20067;-80
2022/01/10 09:45:06;;;;;;;98.43;51.75;;;;;;;;;;5094783;28;20101;-81
2022/01/10 09:47:32;;;;;;;102.97;50.27;;;;;;;;;;5107255;28;20093;-80
2022/01/10 09:49:58;;;;;;;100.35;53.65;;;;;;;;;;5094687;28;20046;-81
2022/01/10 09:52:25;;;;;;;108.10;54.67;;;;;;;;;;5115561;28;20052;-82
2022/01/10 09:54:53;;;;;;;108.43;52.95;;;;;;;;;;5111553;28;20050;-84
2022/01/10 09:57:19;;;;;;;116.13;52.80;;;;;;;;;;5093970;28;20418;-80
2022/01/10 09:59:47;;;;;;;101.57;49.47;;;;;;;;;;5093936;28;20047;-81
2022/01/10 10:02:16;;;;;;;108.77;52.93;;;;;;;;;;5111505;28;20096;-79
2022/01/10 10:04:43;;;;;;;100.00;49.07;;;;;;;;;;5107560;28;20062;-80
2022/01/10 10:07:10;;;;;;;101.13;50.30;;;;;;;;;;5109842;28;20107;-75
2022/01/10 10:09:36;;;;;;;106.63;50.27;;;;;;;;;;5112875;27;20067;-79
2022/01/10 10:12:03;;;;;;;97.82;46.33;;;;;;;;;;5099324;28;20498;-81
2022/01/10 10:14:30;;;;;;;94.13;50.63;;;;;;;;;;5100154;28;20084;-81
2022/01/10 10:16:57;;;;;;;99.20;49.20;;;;;;;;;;5106593;28;20039;-82
2022/01/10 10:19:28;;;;;;;94.40;48.07;;;;;;;;;;5093316;28;20052;-81
2022/01/10 10:21:58;;;;;;;107.00;51.83;;;;;;;;;;5091178;28;20048;-81
2022/01/10 10:24:25;;;;;;;100.03;47.83;;;;;;;;;;5090476;28;20482;-81
2022/01/10 10:26:51;;;;;;;97.33;48.97;;;;;;;;;;5104352;28;20039;-87
2022/01/10 10:29:18;;;;;;;;;;;;;;;;;;5093985;28;20040;-81
2022/01/10 10:31:49;;;;;;;93.73;49.23;;;;;;;;;;5103330;28;19968;-81
2022/01/10 10:34:29;;;;;;;97.93;47.07;;;;;;;;;;5080092;28;20378;-81
2022/01/10 10:37:14;;;;;;;95.77;47.60;;;;;;;;;;5116388;27;20048;-82
2022/01/10 10:39:42;;;;;;;91.20;46.73;;;;;;;;;;5078722;28;20086;-82
2022/01/10 10:42:12;;;;;;;84.67;47.27;;;;;;;;;;5074839;28;20562;-82
2022/01/10 10:44:39;;;;;;;96.13;47.03;;;;;;;;;;5080302;28;20441;-81
2022/01/10 10:47:05;;;;;;;93.27;50.70;;;;;;;;;;5103343;28;20052;-81
2022/01/10 10:49:36;;;;;;;101.10;49.83;;;;;;;;;;5106497;28;20109;-82
2022/01/10 10:52:05;;;;;;;87.03;45.93;;;;;;;;;;5090078;28;20538;-81
2022/01/10 10:54:32;;;;;;;91.20;46.67;;;;;;;;;;5072433;28;20518;-80
2022/01/10 10:57:02;;;;;;;92.77;47.27;;;;;;;;;;5090977;28;20052;-80
2022/01/10 10:59:30;;;;;;;98.63;48.17;;;;;;;;;;5090396;28;20044;-80
2022/01/10 11:01:57;;;;;;;88.18;45.75;;;;;;;;;;5105608;28;20471;-81
2022/01/10 11:04:23;;;;;;;;;;;;;;;;;;5069046;28;20064;-80
2022/01/10 11:06:51;;;;;;;90.65;44.67;;;;;;;;;;5103549;28;19960;-81
2022/01/10 11:09:18;;;;;;;87.67;46.60;;;;;;;;;;5089991;28;20048;-80
2022/01/10 11:11:45;;;;;;;87.80;47.05;;;;;;;;;;5069759;28;20058;-81
2022/01/10 11:14:13;;;;;;;81.82;42.42;;;;;;;;;;5068706;28;20049;-80
2022/01/10 11:16:40;;;;;;;89.85;45.33;;;;;;;;;;5070007;28;20052;-80
2022/01/10 11:19:18;;;;;;;95.93;42.70;;;;;;;;;;5074187;28;20551;-81
2022/01/10 11:21:55;;;;;;;77.05;42.55;;;;;;;;;;5076401;28;20048;-80
2022/01/10 11:24:40;;;;;;;72.88;36.92;;;;;;;;;;5080305;28;20155;-80
2022/01/10 11:27:08;;;;;;;85.00;41.43;;;;;;;;;;5093498;28;20085;-81
2022/01/10 11:29:42;;;;;;;70.35;37.28;;;;;;;;;;5081979;28;20032;-81
2022/01/10 11:32:08;;;;;;;76.45;40.58;;;;;;;;;;5093255;28;20530;-81
2022/01/10 11:34:34;;;;;;;80.75;38.90;;;;;;;;;;5085885;28;20051;-81
2022/01/10 11:37:03;;;;;;;77.30;40.67;;;;;;;;;;5077578;28;20132;-85
2022/01/10 11:39:36;;;;;;;70.30;39.13;;;;;;;;;;5073937;28;20070;-80
2022/01/10 11:42:05;;;;;;;71.90;39.20;;;;;;;;;;5124820;27;20083;-81
2022/01/10 11:44:31;;;;;;;75.53;34.70;;;;;;;;;;5080171;28;20125;-81
2022/01/10 11:46:59;;;;;;;64.03;34.95;;;;;;;;;;5073640;28;20101;-82
2022/01/10 11:49:25;;;;;;;74.20;35.97;;;;;;;;;;5106100;28;20045;-80
2022/01/10 11:51:51;;;;;;;68.85;35.47;;;;;;;;;;5106620;28;20067;-80
2022/01/10 11:54:27;;;;;;;71.97;36.40;;;;;;;;;;5074529;28;20044;-81
2022/01/10 11:56:54;;;;;;;67.18;33.92;;;;;;;;;;5083511;28;20040;-81
2022/01/10 11:59:39;;;;;;;68.68;34.17;;;;;;;;;;5076171;28;20110;-80
2022/01/10 12:02:12;;;;;;;71.57;34.97;;;;;;;;;;5055266;28;20472;-82
2022/01/10 12:04:39;;;;;;;62.97;32.78;;;;;;;;;;5090480;28;20404;-80
2022/01/10 12:07:06;;;;;;;65.80;33.03;;;;;;;;;;5095549;28;20044;-81
2022/01/10 12:09:32;;;;;;;61.08;33.25;;;;;;;;;;5093689;28;20044;-81
2022/01/10 12:12:00;;;;;;;68.03;35.13;;;;;;;;;;5105595;28;20062;-81
2022/01/10 12:14:27;;;;;;;64.07;34.15;;;;;;;;;;5113460;28;20059;-82
2022/01/10 12:16:54;;;;;;;67.47;31.08;;;;;;;;;;5081655;28;20485;-83
2022/01/10 12:19:20;;;;;;;65.43;29.42;;;;;;;;;;5098580;28;20039;-82
2022/01/10 12:21:47;;;;;;;62.65;30.30;;;;;;;;;;5114191;28;20379;-82
2022/01/10 12:24:13;;;;;;;;;;;;;;;;;;5095224;28;20047;-82
2022/01/10 12:26:40;;;;;;;57.88;28.38;;;;;;;;;;5113533;28;19920;-82
2022/01/10 12:29:08;;;;;;;61.73;32.30;;;;;;;;;;5112059;28;20044;-81
2022/01/10 12:31:35;;;;;;;68.82;34.08;;;;;;;;;;5074031;28;20050;-82
2022/01/10 12:34:02;;;;;;;76.32;35.38;;;;;;;;;;5093049;28;20168;-81
2022/01/10 12:36:29;;;;;;;77.90;35.45;;;;;;;;;;5074249;28;20044;-80
2022/01/10 12:38:55;;;;;;;;;;;;;;;;;;5109216;28;20048;-80
2022/01/10 12:41:21;;;;;;;71.57;36.10;;;;;;;;;;5098711;28;19919;-81
2022/01/10 12:43:49;;;;;;;64.55;30.13;;;;;;;;;;5091857;28;20196;-81
2022/01/10 12:46:15;;;;;;;56.55;31.88;;;;;;;;;;5108486;28;20093;-80
2022/01/10 12:48:42;;;;;;;62.80;31.60;;;;;;;;;;5113267;28;20053;-80
2022/01/10 12:51:08;;;;;;;62.45;32.20;;;;;;;;;;5112666;28;20047;-80
2022/01/10 12:53:34;;;;;;;69.18;33.47;;;;;;;;;;5079720;28;20100;-79
2022/01/10 12:56:00;;;;;;;64.28;33.83;;;;;;;;;;5075506;28;20051;-78
2022/01/10 12:58:27;;;;;;;58.95;32.63;;;;;;;;;;5107936;28;20058;-78
2022/01/10 13:00:53;;;;;;;74.90;33.25;;;;;;;;;;5108697;28;20043;-78
2022/01/10 13:03:19;;;;;;;72.03;33.55;;;;;;;;;;5092063;28;20083;-79
2022/01/10 13:05:46;;;;;;;59.17;31.42;;;;;;;;;;5098116;28;20059;-79
2022/01/10 13:08:12;;;;;;;51.55;27.70;;;;;;;;;;5094054;28;20130;-80
2022/01/10 13:10:39;;;;;;;56.97;28.83;;;;;;;;;;5110760;28;20039;-78
2022/01/10 13:13:05;;;;;;;59.17;27.67;;;;;;;;;;5112848;28;20044;-79
2022/01/10 13:15:37;;;;;;;54.90;28.33;;;;;;;;;;5112438;28;20048;-78
2022/01/10 13:18:04;;;;;;;54.72;29.42;;;;;;;;;;5112799;28;20051;-78
2022/01/10 13:20:36;;;;;;;56.28;28.80;;;;;;;;;;5077710;28;20150;-78
2022/01/10 13:23:07;;;;;;;52.33;29.65;;;;;;;;;;5092039;28;20493;-78
2022/01/10 13:25:34;;;;;;;52.17;29.83;;;;;;;;;;5091785;28;20052;-77
2022/01/10 13:28:01;;;;;;;58.55;30.67;;;;;;;;;;5092102;28;20063;-77
2022/01/10 13:30:28;;;;;;;56.45;28.73;;;;;;;;;;5102642;28;20039;-77
2022/01/10 13:32:56;;;;;;;49.60;26.08;;;;;;;;;;5112535;28;20188;-77
2022/01/10 13:35:24;;;;;;;46.42;24.25;;;;;;;;;;5127832;27;20097;-77
2022/01/10 13:37:58;;;;;;;46.25;23.63;;;;;;;;;;5112179;28;20106;-77
2022/01/10 13:40:25;;;;;;;47.03;22.88;;;;;;;;;;5103845;28;20105;-76
2022/01/10 13:43:02;;;;;;;43.45;21.88;;;;;;;;;;5106219;28;20043;-75
2022/01/10 13:45:56;;;;;;;41.83;22.73;;;;;;;;;;5111734;28;20207;-76
2022/01/10 13:48:31;;;;;;;52.70;24.13;;;;;;;;;;5110876;28;20064;-76
2022/01/10 13:51:02;;;;;;;47.78;24.00;;;;;;;;;;5112061;28;20047;-76
2022/01/10 13:53:32;;;;;;;51.85;24.35;;;;;;;;;;5095276;28;20079;-75
2022/01/10 13:56:07;;;;;;;49.58;24.77;;;;;;;;;;5073462;28;20048;-75
2022/01/10 13:58:34;;;;;;;53.22;25.40;;;;;;;;;;5090968;28;20071;-75
2022/01/10 14:01:01;;;;;;;49.90;26.02;;;;;;;;;;5091715;28;20079;-75
2022/01/10 14:03:29;;;;;;;50.63;26.25;;;;;;;;;;5100501;28;20074;-75
2022/01/10 14:06:08;;;;;;;49.00;27.02;;;;;;;;;;5105779;28;20063;-75
2022/01/10 14:08:35;;;;;;;48.88;27.25;;;;;;;;;;5110996;28;20047;-75
2022/01/10 14:11:01;;;;;;;52.28;27.50;;;;;;;;;;5111469;28;20134;-75
2022/01/10 14:13:30;;;;;;;51.80;26.30;;;;;;;;;;5111333;28;20047;-75
2022/01/10 14:15:57;;;;;;;50.65;26.80;;;;;;;;;;5111706;28;20410;-75
2022/01/10 14:18:23;;;;;;;;;;;;;;;;;;5095576;28;20531;-75
2022/01/10 14:20:49;;;;;;;57.88;26.45;;;;;;;;;;5091116;28;19920;-75
2022/01/10 14:23:17;;;;;;;51.63;26.92;;;;;;;;;;5091062;28;20392;-75
2022/01/10 14:25:44;;;;;;;56.17;28.52;;;;;;;;;;5090990;28;20135;-75
2022/01/10 14:28:10;;;;;;;52.10;27.13;;;;;;;;;;5100157;28;20104;-74
2022/01/10 14:30:37;;;;;;;45.22;26.35;;;;;;;;;;5110901;28;20051;-75
2022/01/10 14:33:03;;;;;;;47.10;26.98;;;;;;;;;;5111247;28;20057;-75
2022/01/10 14:35:29;;;;;;;;;;;;;;;;;;5111066;28;20537;-75